createdAt,value
2018-01-01T00:00:41.239Z,995.1
2018-01-01T00:01:45.889Z,995.01
2018-01-01T00:02:46.164Z,995.11
2018-01-01T00:03:45.919Z,995.1
2018-01-01T00:04:45.955Z,995.05
2018-01-01T00:05:45.973Z,995.11
2018-01-01T00:06:46.444Z,995.08
2018-01-01T00:07:46.476Z,995.13
2018-01-01T00:08:46.650Z,995.07
2018-01-01T00:09:46.651Z,995.07
2018-01-01T00:10:46.974Z,995.14
2018-01-01T00:11:47.211Z,995.13
2018-01-01T00:12:47.464Z,995.19
2018-01-01T00:13:47.474Z,995.18
2018-01-01T00:14:47.506Z,995.14
2018-01-01T00:15:47.536Z,995.07
2018-01-01T00:16:47.567Z,995.07
2018-01-01T00:17:47.602Z,995.14
2018-01-01T00:18:47.660Z,995.12
2018-01-01T00:19:47.657Z,995.07
2018-01-01T00:20:47.931Z,995.16
2018-01-01T00:21:48.264Z,995.12
2018-01-01T00:22:47.932Z,995.18
2018-01-01T00:23:47.971Z,995.16
2018-01-01T00:24:47.986Z,995.09
2018-01-01T00:25:48.008Z,995.07
2018-01-01T00:26:48.476Z,995.06
2018-01-01T00:27:48.685Z,995.13
2018-01-01T00:28:49.118Z,995.1
2018-01-01T00:29:49.394Z,995
2018-01-01T00:30:49.420Z,995.01
2018-01-01T00:31:49.450Z,995.05
2018-01-01T00:32:49.577Z,995.11
2018-01-01T00:33:49.736Z,994.99
2018-01-01T00:34:50.060Z,995.04
2018-01-01T00:35:50.049Z,995.07
2018-01-01T00:36:49.889Z,995.01
2018-01-01T00:37:50.177Z,995.02
2018-01-01T00:38:50.224Z,994.96
2018-01-01T00:39:50.452Z,994.94
2018-01-01T00:40:50.429Z,994.95
2018-01-01T00:41:50.436Z,994.93
2018-01-01T00:42:50.401Z,994.91
2018-01-01T00:43:50.659Z,994.84
2018-01-01T00:44:51.090Z,994.81
2018-01-01T00:45:50.691Z,994.86
2018-01-01T00:46:50.714Z,994.83
2018-01-01T00:47:51.002Z,994.81
2018-01-01T00:48:50.959Z,994.76
2018-01-01T00:49:50.988Z,994.83
2018-01-01T00:50:51.091Z,994.77
2018-01-01T00:51:51.417Z,994.77
2018-01-01T00:52:51.669Z,994.8
2018-01-01T00:53:51.637Z,994.79
2018-01-01T00:54:51.651Z,994.83
2018-01-01T00:55:51.688Z,994.78
2018-01-01T00:56:51.717Z,994.79
2018-01-01T00:57:51.748Z,994.76
2018-01-01T00:58:51.779Z,994.79
2018-01-01T00:59:51.807Z,994.84
2018-01-01T01:01:51.966Z,994.78
2018-01-01T01:02:51.849Z,994.76
2018-01-01T01:03:51.909Z,994.83
2018-01-01T01:04:51.932Z,994.79
2018-01-01T01:05:51.977Z,994.84
2018-01-01T01:06:52.896Z,994.87
2018-01-01T01:07:52.568Z,994.86
2018-01-01T01:08:52.656Z,994.84
2018-01-01T01:09:52.609Z,994.79
2018-01-01T01:10:52.948Z,994.82
2018-01-01T01:11:52.982Z,994.88
2018-01-01T01:13:53.009Z,994.9
2018-01-01T01:14:53.179Z,994.87
2018-01-01T01:15:53.455Z,994.87
2018-01-01T01:16:53.123Z,994.87
2018-01-01T01:17:53.134Z,994.95
2018-01-01T01:18:53.166Z,994.92
2018-01-01T01:19:53.198Z,994.9
2018-01-01T01:20:53.652Z,994.95
2018-01-01T01:21:53.289Z,994.97
2018-01-01T01:22:53.279Z,994.97
2018-01-01T01:23:53.298Z,994.96
2018-01-01T01:24:53.472Z,994.93
2018-01-01T01:25:53.539Z,994.98
2018-01-01T01:26:53.417Z,994.99
2018-01-01T01:27:53.412Z,995.03
2018-01-01T01:28:53.495Z,995.04
2018-01-01T01:29:53.802Z,995.1
2018-01-01T01:30:53.823Z,995.02
2018-01-01T01:31:53.969Z,995
2018-01-01T01:32:53.976Z,995.01
2018-01-01T01:33:54.025Z,995.08
2018-01-01T01:34:54.053Z,995.04
2018-01-01T01:35:54.414Z,995.09
2018-01-01T01:36:54.093Z,995.07
2018-01-01T01:37:54.144Z,995.08
2018-01-01T01:38:54.148Z,995.17
2018-01-01T01:39:54.191Z,995.1
2018-01-01T01:40:54.232Z,995.15
2018-01-01T01:41:54.553Z,995.16
2018-01-01T01:42:54.713Z,995.16
2018-01-01T01:43:54.793Z,995.23
2018-01-01T01:44:55.073Z,995.22
2018-01-01T01:45:55.091Z,995.25
2018-01-01T01:46:55.637Z,995.27
2018-01-01T01:47:55.655Z,995.3
2018-01-01T01:48:55.704Z,995.27
2018-01-01T01:49:55.701Z,995.24
2018-01-01T01:50:56.003Z,995.37
2018-01-01T01:51:56.071Z,995.41
2018-01-01T01:52:56.061Z,995.42
2018-01-01T01:53:56.097Z,995.45
2018-01-01T01:54:56.089Z,995.45
2018-01-01T01:55:56.296Z,995.44
2018-01-01T01:56:56.358Z,995.4
2018-01-01T01:57:56.497Z,995.42
2018-01-01T01:58:56.374Z,995.43
2018-01-01T01:59:57.187Z,995.42
2018-01-01T02:00:57.163Z,995.37
2018-01-01T02:01:57.188Z,995.36
2018-01-01T02:02:57.430Z,995.42
2018-01-01T02:03:57.849Z,995.3
2018-01-01T02:04:57.994Z,995.31
2018-01-01T02:05:57.965Z,995.37
2018-01-01T02:06:57.988Z,995.4
2018-01-01T02:07:58.569Z,995.27
2018-01-01T02:08:58.766Z,995.33
2018-01-01T02:09:59.148Z,995.26
2018-01-01T02:10:58.920Z,995.43
2018-01-01T02:11:59.111Z,995.35
2018-01-01T02:12:59.187Z,995.34
2018-01-01T02:13:59.163Z,995.3
2018-01-01T02:14:59.219Z,995.27
2018-01-01T02:15:59.443Z,995.33
2018-01-01T02:16:59.475Z,995.42
2018-01-01T02:17:59.504Z,995.36
2018-01-01T02:18:59.901Z,995.32
2018-01-01T02:20:00.062Z,995.35
2018-01-01T02:21:00.055Z,995.32
2018-01-01T02:22:00.272Z,995.37
2018-01-01T02:23:00.354Z,995.38
2018-01-01T02:24:00.571Z,995.37
2018-01-01T02:25:00.390Z,995.4
2018-01-01T02:26:00.597Z,995.37
2018-01-01T02:27:00.852Z,995.39
2018-01-01T02:28:00.759Z,995.45
2018-01-01T02:29:00.791Z,995.46
2018-01-01T02:30:01.097Z,995.5
2018-01-01T02:31:01.222Z,995.5
2018-01-01T02:32:01.321Z,995.47
2018-01-01T02:33:01.358Z,995.59
2018-01-01T02:34:01.613Z,995.59
2018-01-01T02:35:01.793Z,995.62
2018-01-01T02:36:02.461Z,995.67
2018-01-01T02:37:02.486Z,995.77
2018-01-01T02:38:02.627Z,995.64
2018-01-01T02:39:03.049Z,995.69
2018-01-01T02:40:03.062Z,995.66
2018-01-01T02:41:03.260Z,995.77
2018-01-01T02:42:03.350Z,995.69
2018-01-01T02:43:03.305Z,995.72
2018-01-01T02:44:06.430Z,995.76
2018-01-01T02:45:03.344Z,995.74
2018-01-01T02:46:03.392Z,995.77
2018-01-01T02:47:03.473Z,995.83
2018-01-01T02:48:03.440Z,995.94
2018-01-01T02:49:03.500Z,995.73
2018-01-01T02:50:03.616Z,995.72
2018-01-01T02:51:04.041Z,995.68
2018-01-01T02:52:04.070Z,995.75
2018-01-01T02:53:05.013Z,995.72
2018-01-01T02:54:04.136Z,995.73
2018-01-01T02:55:04.243Z,995.74
2018-01-01T02:56:04.189Z,995.7
2018-01-01T02:57:04.356Z,995.77
2018-01-01T02:58:04.660Z,995.83
2018-01-01T02:59:04.692Z,995.83
2018-01-01T03:00:19.331Z,995.92
2018-01-01T03:01:19.359Z,995.87
2018-01-01T03:02:21.895Z,995.96
2018-01-01T03:03:19.450Z,995.91
2018-01-01T03:04:19.540Z,995.98
2018-01-01T03:05:19.574Z,995.96
2018-01-01T03:06:24.959Z,996.06
2018-01-01T03:07:25.010Z,995.99
2018-01-01T03:08:25.033Z,996.04
2018-01-01T03:10:34.431Z,996.06
2018-01-01T03:11:34.486Z,996.01
2018-01-01T03:12:34.488Z,996.02
2018-01-01T03:13:34.514Z,996.01
2018-01-01T03:14:34.576Z,995.98
2018-01-01T03:15:34.602Z,995.99
2018-01-01T03:16:34.883Z,995.94
2018-01-01T03:17:40.027Z,995.99
2018-01-01T03:18:40.053Z,995.96
2018-01-01T03:19:40.101Z,996.06
2018-01-01T03:20:40.565Z,995.99
2018-01-01T03:21:40.598Z,996.18
2018-01-01T03:22:40.600Z,996.11
2018-01-01T03:23:40.631Z,996.12
2018-01-01T03:24:40.681Z,996.1
2018-01-01T03:25:40.758Z,996.13
2018-01-01T03:26:40.736Z,996.08
2018-01-01T03:27:40.740Z,996.09
2018-01-01T03:28:40.796Z,996.07
2018-01-01T03:29:50.747Z,996.04
2018-01-01T03:30:50.958Z,996.07
2018-01-01T03:32:51.016Z,996.12
2018-01-01T03:33:51.025Z,996.11
2018-01-01T03:34:51.286Z,996.17
2018-01-01T03:35:51.322Z,996.2
2018-01-01T03:37:06.146Z,996.22
2018-01-01T03:38:06.038Z,996.19
2018-01-01T03:39:06.030Z,996.24
2018-01-01T03:40:05.992Z,996.12
2018-01-01T03:41:06.055Z,996.23
2018-01-01T03:42:06.028Z,996.13
2018-01-01T03:43:06.076Z,996.2
2018-01-01T03:44:06.111Z,996.22
2018-01-01T03:45:06.624Z,996.22
2018-01-01T03:46:06.609Z,996.21
2018-01-01T03:47:06.652Z,996.21
2018-01-01T03:48:06.658Z,996.18
2018-01-01T03:49:21.575Z,996.17
2018-01-01T03:50:31.419Z,996.18
2018-01-01T03:51:31.631Z,996.18
2018-01-01T03:52:31.636Z,996.11
2018-01-01T03:53:31.787Z,996.11
2018-01-01T03:54:31.822Z,996.04
2018-01-01T03:55:31.820Z,996.05
2018-01-01T03:56:31.864Z,996.1
2018-01-01T03:57:31.880Z,996.13
2018-01-01T03:58:31.987Z,996.18
2018-01-01T03:59:31.951Z,996.11
2018-01-01T04:00:31.962Z,996.16
2018-01-01T04:01:31.986Z,996.13
2018-01-01T04:02:32.262Z,996.14
2018-01-01T04:03:32.053Z,996.2
2018-01-01T04:04:32.231Z,996.15
2018-01-01T04:05:32.254Z,996.21
2018-01-01T04:06:32.288Z,996.16
2018-01-01T04:07:32.315Z,996.26
2018-01-01T04:08:32.338Z,996.18
2018-01-01T04:09:32.829Z,996.2
2018-01-01T04:10:32.535Z,996.18
2018-01-01T04:11:32.432Z,996.18
2018-01-01T04:12:32.464Z,996.13
2018-01-01T04:13:32.486Z,996.13
2018-01-01T04:14:32.522Z,996.19
2018-01-01T04:15:32.540Z,996.21
2018-01-01T04:16:32.756Z,996.18
2018-01-01T04:17:32.885Z,996.17
2018-01-01T04:18:32.810Z,996.16
2018-01-01T04:19:33.263Z,996.2
2018-01-01T04:20:33.448Z,996.22
2018-01-01T04:21:33.475Z,996.3
2018-01-01T04:22:33.891Z,996.27
2018-01-01T04:23:34.075Z,996.23
2018-01-01T04:24:34.255Z,996.26
2018-01-01T04:25:34.282Z,996.26
2018-01-01T04:26:34.316Z,996.32
2018-01-01T04:27:34.774Z,996.27
2018-01-01T04:28:34.964Z,996.33
2018-01-01T04:29:35.409Z,996.28
2018-01-01T04:30:35.433Z,996.31
2018-01-01T04:31:35.459Z,996.37
2018-01-01T04:32:35.486Z,996.36
2018-01-01T04:33:35.537Z,996.29
2018-01-01T04:34:35.569Z,996.25
2018-01-01T04:35:35.566Z,996.32
2018-01-01T04:36:35.762Z,996.33
2018-01-01T04:37:36.208Z,996.33
2018-01-01T04:38:36.234Z,996.34
2018-01-01T04:39:36.676Z,996.28
2018-01-01T04:40:36.703Z,996.24
2018-01-01T04:41:36.731Z,996.23
2018-01-01T04:42:37.096Z,996.25
2018-01-01T04:43:37.171Z,996.27
2018-01-01T04:44:37.147Z,996.29
2018-01-01T04:45:37.175Z,996.32
2018-01-01T04:46:37.214Z,996.28
2018-01-01T04:47:37.234Z,996.29
2018-01-01T04:48:37.260Z,996.3
2018-01-01T04:49:37.738Z,996.36
2018-01-01T04:50:37.896Z,996.36
2018-01-01T04:51:38.446Z,996.29
2018-01-01T04:52:38.453Z,996.33
2018-01-01T04:53:38.484Z,996.33
2018-01-01T04:54:38.526Z,996.32
2018-01-01T04:55:38.552Z,996.37
2018-01-01T04:56:38.763Z,996.41
2018-01-01T04:57:39.011Z,996.35
2018-01-01T04:58:39.041Z,996.35
2018-01-01T04:59:39.071Z,996.3
2018-01-01T05:00:39.106Z,996.31
2018-01-01T05:01:39.492Z,996.35
2018-01-01T05:02:39.707Z,996.32
2018-01-01T05:03:39.745Z,996.27
2018-01-01T05:04:40.076Z,996.37
2018-01-01T05:05:40.079Z,996.34
2018-01-01T05:06:40.196Z,996.34
2018-01-01T05:07:40.621Z,996.32
2018-01-01T05:08:40.731Z,996.38
2018-01-01T05:09:41.118Z,996.3
2018-01-01T05:10:41.164Z,996.3
2018-01-01T05:11:41.538Z,996.23
2018-01-01T05:12:41.737Z,996.41
2018-01-01T05:13:42.142Z,996.35
2018-01-01T05:14:42.305Z,996.38
2018-01-01T05:15:42.497Z,996.44
2018-01-01T05:16:42.482Z,996.46
2018-01-01T05:17:42.492Z,996.42
2018-01-01T05:18:42.533Z,996.44
2018-01-01T05:19:42.946Z,996.44
2018-01-01T05:20:43.005Z,996.43
2018-01-01T05:21:42.981Z,996.48
2018-01-01T05:22:43.169Z,996.5
2018-01-01T05:23:43.207Z,996.48
2018-01-01T05:24:43.240Z,996.44
2018-01-01T05:25:43.256Z,996.49
2018-01-01T05:26:43.695Z,996.56
2018-01-01T05:27:44.112Z,996.48
2018-01-01T05:28:44.509Z,996.49
2018-01-01T05:29:44.878Z,996.43
2018-01-01T05:30:45.038Z,996.43
2018-01-01T05:31:45.102Z,996.45
2018-01-01T05:32:45.903Z,996.48
2018-01-01T05:33:45.886Z,996.5
2018-01-01T05:34:45.741Z,996.61
2018-01-01T05:35:45.776Z,996.67
2018-01-01T05:36:46.020Z,996.66
2018-01-01T05:37:46.212Z,996.71
2018-01-01T05:38:46.458Z,996.68
2018-01-01T05:39:46.273Z,996.64
2018-01-01T05:40:46.301Z,996.59
2018-01-01T05:41:46.318Z,996.43
2018-01-01T05:42:46.719Z,996.4
2018-01-01T05:43:46.900Z,996.44
2018-01-01T05:44:47.175Z,996.37
2018-01-01T05:45:47.206Z,996.36
2018-01-01T05:46:47.373Z,996.46
2018-01-01T05:47:47.682Z,996.48
2018-01-01T05:48:48.048Z,996.57
2018-01-01T05:49:48.452Z,996.59
2018-01-01T05:50:48.608Z,996.67
2018-01-01T05:51:49.082Z,996.66
2018-01-01T05:52:48.682Z,996.71
2018-01-01T05:53:49.134Z,996.68
2018-01-01T05:54:50.104Z,996.79
2018-01-01T05:55:49.979Z,996.78
2018-01-01T05:56:50.347Z,996.78
2018-01-01T05:57:50.408Z,996.84
2018-01-01T05:58:50.393Z,996.86
2018-01-01T05:59:50.432Z,996.84
2018-01-01T06:00:50.577Z,996.92
2018-01-01T06:01:50.695Z,996.83
2018-01-01T06:02:50.702Z,996.96
2018-01-01T06:03:50.914Z,996.96
2018-01-01T06:04:51.137Z,997.09
2018-01-01T06:05:50.641Z,997.13
2018-01-01T06:06:50.669Z,997.13
2018-01-01T06:07:50.805Z,997.17
2018-01-01T06:08:50.690Z,997.16
2018-01-01T06:09:50.719Z,997.21
2018-01-01T06:10:50.764Z,997.29
2018-01-01T06:11:50.931Z,997.3
2018-01-01T06:12:51.344Z,997.34
2018-01-01T06:13:51.273Z,997.37
2018-01-01T06:14:51.312Z,997.45
2018-01-01T06:15:51.331Z,997.47
2018-01-01T06:16:51.426Z,997.45
2018-01-01T06:17:51.515Z,997.5
2018-01-01T06:18:51.808Z,997.46
2018-01-01T06:19:52.085Z,997.42
2018-01-01T06:20:51.863Z,997.48
2018-01-01T06:21:51.890Z,997.3
2018-01-01T06:22:51.969Z,997.42
2018-01-01T06:23:53.221Z,997.41
2018-01-01T06:24:52.802Z,997.38
2018-01-01T06:25:52.828Z,997.39
2018-01-01T06:26:53.584Z,997.41
2018-01-01T06:27:53.417Z,997.47
2018-01-01T06:28:53.527Z,997.51
2018-01-01T06:29:53.477Z,997.56
2018-01-01T06:30:53.927Z,997.62
2018-01-01T06:31:53.932Z,997.56
2018-01-01T06:32:53.963Z,997.6
2018-01-01T06:33:54.010Z,997.63
2018-01-01T06:34:54.485Z,997.64
2018-01-01T06:35:54.627Z,997.67
2018-01-01T06:36:54.664Z,997.76
2018-01-01T06:37:54.680Z,997.77
2018-01-01T06:38:54.712Z,997.87
2018-01-01T06:39:54.738Z,997.85
2018-01-01T06:40:54.915Z,997.85
2018-01-01T06:41:54.950Z,997.73
2018-01-01T06:42:55.006Z,997.74
2018-01-01T06:43:55.007Z,997.8
2018-01-01T06:44:55.050Z,997.87
2018-01-01T06:45:55.062Z,997.81
2018-01-01T06:46:55.487Z,997.88
2018-01-01T06:47:55.516Z,997.87
2018-01-01T06:48:55.718Z,997.87
2018-01-01T06:49:55.729Z,997.91
2018-01-01T06:50:55.775Z,997.89
2018-01-01T06:51:55.839Z,997.96
2018-01-01T06:52:55.813Z,997.94
2018-01-01T06:53:55.845Z,997.93
2018-01-01T06:54:55.872Z,997.95
2018-01-01T06:55:56.014Z,997.99
2018-01-01T06:56:56.115Z,997.89
2018-01-01T06:57:56.103Z,997.88
2018-01-01T06:58:56.652Z,997.98
2018-01-01T06:59:56.591Z,997.86
2018-01-01T07:00:56.622Z,997.88
2018-01-01T07:01:56.660Z,997.94
2018-01-01T07:02:56.672Z,997.98
2018-01-01T07:03:56.714Z,997.92
2018-01-01T07:04:56.734Z,997.91
2018-01-01T07:05:57.165Z,997.96
2018-01-01T07:06:57.274Z,997.93
2018-01-01T07:07:57.281Z,997.9
2018-01-01T07:08:57.311Z,997.92
2018-01-01T07:09:57.690Z,997.96
2018-01-01T07:10:57.723Z,997.96
2018-01-01T07:11:57.756Z,997.99
2018-01-01T07:12:57.796Z,997.92
2018-01-01T07:13:57.960Z,997.83
2018-01-01T07:14:58.194Z,997.93
2018-01-01T07:15:58.204Z,997.95
2018-01-01T07:16:58.231Z,997.96
2018-01-01T07:17:58.407Z,997.97
2018-01-01T07:18:58.458Z,998.01
2018-01-01T07:19:58.474Z,998.02
2018-01-01T07:20:58.500Z,997.98
2018-01-01T07:21:58.557Z,998.16
2018-01-01T07:22:58.583Z,998.05
2018-01-01T07:23:58.604Z,998.12
2018-01-01T07:24:58.805Z,998.16
2018-01-01T07:25:58.926Z,998.16
2018-01-01T07:26:59.183Z,998.19
2018-01-01T07:27:58.870Z,998.23
2018-01-01T07:28:58.927Z,998.18
2018-01-01T07:29:59.161Z,998.27
2018-01-01T07:30:59.260Z,998.27
2018-01-01T07:31:59.639Z,998.28
2018-01-01T07:32:59.632Z,998.36
2018-01-01T07:33:59.259Z,998.31
2018-01-01T07:34:59.370Z,998.38
2018-01-01T07:35:59.361Z,998.43
2018-01-01T07:36:59.372Z,998.34
2018-01-01T07:37:59.588Z,998.34
2018-01-01T07:38:59.832Z,998.36
2018-01-01T07:39:59.872Z,998.39
2018-01-01T07:40:59.891Z,998.44
2018-01-01T07:42:00.482Z,998.26
2018-01-01T07:43:00.408Z,998.39
2018-01-01T07:44:00.360Z,998.32
2018-01-01T07:45:00.388Z,998.33
2018-01-01T07:46:00.404Z,998.33
2018-01-01T07:47:00.490Z,998.25
2018-01-01T07:48:00.845Z,998.26
2018-01-01T07:49:00.901Z,998.26
2018-01-01T07:50:01.085Z,998.31
2018-01-01T07:51:01.594Z,998.37
2018-01-01T07:52:01.706Z,998.36
2018-01-01T07:53:01.695Z,998.31
2018-01-01T07:54:01.552Z,998.35
2018-01-01T07:55:01.593Z,998.37
2018-01-01T07:56:01.735Z,998.3
2018-01-01T07:57:01.634Z,998.31
2018-01-01T07:58:01.795Z,998.42
2018-01-01T07:59:02.164Z,998.39
2018-01-01T08:01:02.258Z,998.44
2018-01-01T08:02:02.257Z,998.45
2018-01-01T08:03:02.353Z,998.4
2018-01-01T08:04:02.305Z,998.49
2018-01-01T08:05:02.568Z,998.48
2018-01-01T08:06:02.604Z,998.48
2018-01-01T08:07:02.616Z,998.51
2018-01-01T08:08:02.648Z,998.47
2018-01-01T08:09:02.710Z,998.53
2018-01-01T08:10:02.936Z,998.57
2018-01-01T08:11:02.944Z,998.57
2018-01-01T08:12:02.973Z,998.6
2018-01-01T08:13:03.007Z,998.6
2018-01-01T08:14:03.027Z,998.65
2018-01-01T08:15:03.577Z,998.63
2018-01-01T08:16:03.897Z,998.68
2018-01-01T08:17:04.058Z,998.65
2018-01-01T08:18:03.963Z,998.66
2018-01-01T08:19:04.000Z,998.62
2018-01-01T08:20:04.081Z,998.71
2018-01-01T08:21:04.230Z,998.79
2018-01-01T08:22:04.089Z,998.79
2018-01-01T08:23:04.129Z,998.78
2018-01-01T08:24:04.549Z,998.78
2018-01-01T08:25:04.167Z,998.84
2018-01-01T08:26:04.234Z,998.88
2018-01-01T08:27:04.243Z,998.9
2018-01-01T08:28:04.662Z,998.91
2018-01-01T08:29:04.742Z,998.99
2018-01-01T08:30:04.822Z,998.97
2018-01-01T08:31:04.755Z,998.97
2018-01-01T08:32:04.800Z,998.89
2018-01-01T08:33:05.096Z,998.93
2018-01-01T08:34:05.310Z,999.01
2018-01-01T08:35:05.143Z,998.99
2018-01-01T08:36:05.284Z,999
2018-01-01T08:37:05.267Z,999.03
2018-01-01T08:38:05.348Z,999
2018-01-01T08:39:05.071Z,998.93
2018-01-01T08:40:05.182Z,998.95
2018-01-01T08:41:05.109Z,998.97
2018-01-01T08:42:05.066Z,998.9
2018-01-01T08:43:05.079Z,998.95
2018-01-01T08:44:05.115Z,999
2018-01-01T08:45:05.221Z,999.01
2018-01-01T08:46:05.599Z,999.02
2018-01-01T08:47:05.366Z,998.96
2018-01-01T08:48:05.305Z,998.97
2018-01-01T08:49:05.451Z,998.92
2018-01-01T08:50:05.420Z,999.13
2018-01-01T08:51:05.554Z,999.16
2018-01-01T08:52:05.398Z,999.08
2018-01-01T08:53:05.663Z,999.17
2018-01-01T08:54:05.578Z,999.1
2018-01-01T08:55:05.791Z,999.15
2018-01-01T08:56:05.456Z,999.17
2018-01-01T08:57:05.489Z,999.17
2018-01-01T08:58:05.512Z,999.11
2018-01-01T08:59:05.542Z,999.17
2018-01-01T09:01:05.604Z,999.19
2018-01-01T09:02:05.985Z,999.18
2018-01-01T09:03:06.155Z,999.19
2018-01-01T09:04:06.551Z,999.13
2018-01-01T09:05:06.579Z,999.13
2018-01-01T09:06:06.827Z,999.2
2018-01-01T09:07:06.861Z,999.12
2018-01-01T09:08:06.890Z,999.18
2018-01-01T09:09:07.096Z,999.17
2018-01-01T09:10:07.117Z,999.13
2018-01-01T09:11:07.239Z,999.18
2018-01-01T09:12:07.803Z,999.24
2018-01-01T09:13:07.607Z,999.24
2018-01-01T09:14:08.132Z,999.31
2018-01-01T09:15:07.938Z,999.25
2018-01-01T09:16:08.714Z,999.31
2018-01-01T09:17:08.398Z,999.41
2018-01-01T09:18:08.413Z,999.38
2018-01-01T09:19:08.586Z,999.22
2018-01-01T09:20:08.848Z,999.27
2018-01-01T09:21:09.274Z,999.19
2018-01-01T09:22:09.523Z,999.31
2018-01-01T09:23:09.567Z,999.32
2018-01-01T09:24:09.713Z,999.35
2018-01-01T09:25:09.794Z,999.46
2018-01-01T09:26:09.922Z,999.27
2018-01-01T09:27:09.978Z,999.33
2018-01-01T09:28:10.319Z,999.44
2018-01-01T09:29:10.367Z,999.43
2018-01-01T09:30:10.558Z,999.49
2018-01-01T09:31:10.624Z,999.47
2018-01-01T09:32:10.634Z,999.3
2018-01-01T09:33:10.699Z,999.48
2018-01-01T09:34:10.848Z,999.36
2018-01-01T09:35:10.894Z,999.42
2018-01-01T09:36:11.063Z,999.43
2018-01-01T09:37:11.215Z,999.48
2018-01-01T09:38:11.364Z,999.4
2018-01-01T09:39:11.384Z,999.4
2018-01-01T09:40:11.461Z,999.38
2018-01-01T09:41:11.613Z,999.5
2018-01-01T09:42:11.917Z,999.38
2018-01-01T09:43:11.501Z,999.38
2018-01-01T09:44:12.016Z,999.44
2018-01-01T09:45:12.192Z,999.4
2018-01-01T09:46:12.262Z,999.33
2018-01-01T09:47:12.105Z,999.44
2018-01-01T09:48:12.054Z,999.46
2018-01-01T09:49:12.097Z,999.44
2018-01-01T09:50:12.687Z,999.44
2018-01-01T09:51:12.624Z,999.57
2018-01-01T09:52:12.682Z,999.46
2018-01-01T09:53:12.873Z,999.4
2018-01-01T09:54:13.350Z,999.52
2018-01-01T09:55:13.729Z,999.47
2018-01-01T09:56:13.749Z,999.56
2018-01-01T09:57:13.832Z,999.42
2018-01-01T09:58:13.868Z,999.54
2018-01-01T09:59:14.163Z,999.55
2018-01-01T10:00:19.394Z,999.52
2018-01-01T10:01:19.545Z,999.49
2018-01-01T10:02:20.103Z,999.49
2018-01-01T10:03:20.085Z,999.61
2018-01-01T10:04:20.142Z,999.54
2018-01-01T10:05:20.198Z,999.54
2018-01-01T10:06:20.847Z,999.59
2018-01-01T10:07:20.451Z,999.56
2018-01-01T10:08:20.477Z,999.58
2018-01-01T10:09:20.504Z,999.44
2018-01-01T10:10:20.527Z,999.49
2018-01-01T10:11:20.555Z,999.47
2018-01-01T10:12:20.686Z,999.57
2018-01-01T10:13:20.638Z,999.5
2018-01-01T10:14:20.682Z,999.49
2018-01-01T10:15:21.177Z,999.47
2018-01-01T10:16:20.761Z,999.49
2018-01-01T10:17:20.789Z,999.53
2018-01-01T10:18:21.228Z,999.56
2018-01-01T10:19:20.892Z,999.63
2018-01-01T10:20:21.051Z,999.63
2018-01-01T10:21:21.098Z,999.52
2018-01-01T10:22:21.116Z,999.54
2018-01-01T10:23:21.158Z,999.56
2018-01-01T10:24:21.455Z,999.53
2018-01-01T10:25:21.460Z,999.58
2018-01-01T10:26:21.177Z,999.62
2018-01-01T10:27:21.075Z,999.55
2018-01-01T10:28:21.106Z,999.56
2018-01-01T10:29:21.149Z,999.62
2018-01-01T10:30:21.411Z,999.84
2018-01-01T10:31:21.519Z,999.85
2018-01-01T10:32:21.466Z,999.75
2018-01-01T10:33:21.759Z,999.76
2018-01-01T10:34:21.981Z,999.68
2018-01-01T10:35:21.720Z,999.77
2018-01-01T10:36:21.583Z,999.61
2018-01-01T10:37:21.998Z,999.69
2018-01-01T10:38:21.775Z,999.55
2018-01-01T10:39:21.661Z,999.73
2018-01-01T10:40:21.750Z,999.72
2018-01-01T10:41:22.123Z,999.81
2018-01-01T10:42:21.918Z,999.72
2018-01-01T10:43:21.782Z,999.81
2018-01-01T10:44:22.128Z,999.76
2018-01-01T10:45:21.873Z,999.82
2018-01-01T10:46:21.946Z,999.67
2018-01-01T10:47:22.009Z,999.58
2018-01-01T10:48:22.028Z,999.68
2018-01-01T10:49:22.367Z,999.77
2018-01-01T10:50:22.421Z,999.8
2018-01-01T10:51:22.029Z,999.74
2018-01-01T10:52:23.037Z,999.72
2018-01-01T10:53:22.649Z,999.77
2018-01-01T10:54:22.677Z,999.8
2018-01-01T10:55:22.788Z,999.75
2018-01-01T10:56:22.754Z,999.78
2018-01-01T10:57:22.779Z,999.7
2018-01-01T10:58:22.807Z,999.72
2018-01-01T10:59:22.842Z,999.81
2018-01-01T11:00:22.874Z,999.71
2018-01-01T11:01:22.913Z,999.74
2018-01-01T11:02:22.971Z,999.79
2018-01-01T11:03:22.941Z,999.72
2018-01-01T11:04:23.013Z,999.79
2018-01-01T11:05:23.008Z,999.8
2018-01-01T11:06:23.031Z,999.79
2018-01-01T11:07:23.074Z,999.69
2018-01-01T11:08:23.106Z,999.71
2018-01-01T11:09:23.148Z,999.72
2018-01-01T11:10:23.272Z,999.7
2018-01-01T11:11:23.713Z,999.65
2018-01-01T11:12:23.612Z,999.57
2018-01-01T11:13:23.629Z,999.68
2018-01-01T11:14:23.830Z,999.58
2018-01-01T11:15:24.051Z,999.65
2018-01-01T11:16:23.995Z,999.61
2018-01-01T11:17:24.020Z,999.59
2018-01-01T11:18:24.469Z,999.56
2018-01-01T11:19:24.522Z,999.6
2018-01-01T11:20:24.553Z,999.58
2018-01-01T11:21:24.579Z,999.62
2018-01-01T11:22:24.749Z,999.57
2018-01-01T11:23:25.188Z,999.5
2018-01-01T11:24:24.819Z,999.54
2018-01-01T11:25:24.840Z,999.46
2018-01-01T11:26:25.724Z,999.54
2018-01-01T11:27:25.567Z,999.49
2018-01-01T11:28:26.000Z,999.56
2018-01-01T11:29:26.047Z,999.47
2018-01-01T11:30:26.212Z,999.5
2018-01-01T11:31:26.215Z,999.55
2018-01-01T11:32:26.434Z,999.47
2018-01-01T11:33:26.409Z,999.56
2018-01-01T11:34:26.459Z,999.53
2018-01-01T11:35:26.624Z,999.53
2018-01-01T11:36:26.883Z,999.54
2018-01-01T11:37:26.908Z,999.52
2018-01-01T11:38:27.358Z,999.51
2018-01-01T11:39:27.558Z,999.57
2018-01-01T11:40:27.543Z,999.57
2018-01-01T11:41:27.620Z,999.51
2018-01-01T11:42:27.793Z,999.57
2018-01-01T11:43:27.873Z,999.54
2018-01-01T11:44:27.772Z,999.54
2018-01-01T11:45:28.140Z,999.49
2018-01-01T11:46:28.560Z,999.52
2018-01-01T11:47:28.729Z,999.5
2018-01-01T11:48:28.708Z,999.47
2018-01-01T11:49:28.593Z,999.48
2018-01-01T11:50:28.612Z,999.49
2018-01-01T11:51:28.690Z,999.5
2018-01-01T11:52:28.714Z,999.5
2018-01-01T11:53:28.843Z,999.52
2018-01-01T11:54:28.744Z,999.45
2018-01-01T11:55:28.958Z,999.41
2018-01-01T11:56:28.963Z,999.51
2018-01-01T11:57:29.037Z,999.51
2018-01-01T11:58:29.046Z,999.5
2018-01-01T11:59:29.430Z,999.44
2018-01-01T12:00:29.467Z,999.4
2018-01-01T12:01:29.497Z,999.42
2018-01-01T12:02:29.587Z,999.49
2018-01-01T12:03:29.555Z,999.38
2018-01-01T12:04:29.692Z,999.44
2018-01-01T12:05:29.624Z,999.45
2018-01-01T12:06:29.634Z,999.44
2018-01-01T12:07:29.655Z,999.42
2018-01-01T12:08:29.690Z,999.5
2018-01-01T12:09:29.716Z,999.47
2018-01-01T12:10:30.425Z,999.49
2018-01-01T12:11:30.080Z,999.53
2018-01-01T12:12:30.112Z,999.5
2018-01-01T12:13:30.230Z,999.51
2018-01-01T12:14:30.257Z,999.47
2018-01-01T12:15:30.251Z,999.47
2018-01-01T12:16:30.598Z,999.47
2018-01-01T12:17:30.615Z,999.56
2018-01-01T12:18:30.623Z,999.48
2018-01-01T12:19:30.707Z,999.46
2018-01-01T12:20:30.673Z,999.54
2018-01-01T12:21:30.703Z,999.45
2018-01-01T12:22:31.336Z,999.49
2018-01-01T12:23:31.575Z,999.39
2018-01-01T12:24:31.413Z,999.53
2018-01-01T12:25:31.442Z,999.49
2018-01-01T12:26:31.462Z,999.43
2018-01-01T12:27:31.492Z,999.47
2018-01-01T12:28:31.676Z,999.46
2018-01-01T12:29:31.557Z,999.43
2018-01-01T12:30:31.577Z,999.48
2018-01-01T12:31:32.050Z,999.48
2018-01-01T12:32:31.642Z,999.52
2018-01-01T12:33:32.106Z,999.5
2018-01-01T12:34:31.792Z,999.44
2018-01-01T12:35:31.737Z,999.47
2018-01-01T12:36:31.784Z,999.46
2018-01-01T12:37:32.124Z,999.4
2018-01-01T12:38:31.826Z,999.43
2018-01-01T12:39:31.830Z,999.5
2018-01-01T12:40:31.858Z,999.51